Back to top

Williston, ND weather

Sioulin Field International Airport, Williston, ND: 7/22/2019 14:52
Visibility10 statute milesclear sky
View 7-Day Forecast
Area Summary
Sky/CloudsSky Clear
Weather [last 24 hours]None
Pressure30.27 in.Hg (1025 hPa)
Dew Point51.1 °F (10.6 °C)
Relative Humidity34.3 %
Temperature82 °F (27.8 °C)red thermometer
Reading TimeMinimum to Maximum Temperature
6-hr ending 7/22@12:5252 °F to 80.1 °F (11.1 °C to 26.7 °C)
6-hr ending 7/22@06:5248.9 °F to 55.9 °F (9.4 °C to 13.3 °C)
6-hr ending 7/22@00:5255.9 °F to 80.1 °F (13.3 °C to 26.7 °C)
6-hr ending 7/21@18:5275 °F to 81 °F (23.9 °C to 27.2 °C)
24-hr ending 7/22@00:5250 °F to 81 °F (10 °C to 27.2 °C)
Wind8.06 MPH (7 KT) green arrow pointing 112.5 degrees
Wind FromEast/Southeast (120 Degrees)
Twilight Begins05:38Sunshine Yesterday
Sunrise06:17N/A
Sunset21:45
Twilight Ends22:23
METARKISN 221952Z AUTO 12007KT 10SM CLR 28/11 A3027 RMK AO2 SLP245 T02780106
Tags: